createdAt,value
2019-01-06T00:00:06.923Z,5.01
2019-01-06T00:02:33.202Z,5.00
2019-01-06T00:04:59.488Z,4.97
2019-01-06T00:07:25.768Z,4.95
2019-01-06T00:09:52.077Z,4.96
2019-01-06T00:12:18.348Z,4.96
2019-01-06T00:14:44.654Z,4.93
2019-01-06T00:17:10.933Z,4.90
2019-01-06T00:19:37.228Z,4.89
2019-01-06T00:22:03.531Z,4.89
2019-01-06T00:24:29.826Z,4.87
2019-01-06T00:26:56.143Z,4.85
2019-01-06T00:29:22.436Z,4.84
2019-01-06T00:31:48.723Z,4.82
2019-01-06T00:34:15.043Z,4.83
2019-01-06T00:36:41.304Z,4.83
2019-01-06T00:39:07.581Z,4.82
2019-01-06T00:41:33.866Z,4.81
2019-01-06T00:44:00.128Z,4.81
2019-01-06T00:46:26.426Z,4.81
2019-01-06T00:48:52.712Z,4.80
2019-01-06T00:51:19.008Z,4.80
2019-01-06T00:53:45.331Z,4.80
2019-01-06T00:56:11.630Z,4.80
2019-01-06T00:58:37.926Z,4.80
2019-01-06T01:01:04.201Z,4.79
2019-01-06T01:03:30.496Z,4.78
2019-01-06T01:05:56.779Z,4.77
2019-01-06T01:08:23.088Z,4.75
2019-01-06T01:10:49.363Z,4.74
2019-01-06T01:13:15.658Z,4.74
2019-01-06T01:15:41.971Z,4.74
2019-01-06T01:18:08.281Z,4.74
2019-01-06T01:20:34.570Z,4.70
2019-01-06T01:23:00.869Z,4.72
2019-01-06T01:25:27.163Z,4.72
2019-01-06T01:27:53.462Z,4.72
2019-01-06T01:30:19.738Z,4.71
2019-01-06T01:32:46.089Z,4.72
2019-01-06T01:35:12.387Z,4.72
2019-01-06T01:37:38.658Z,4.72
2019-01-06T01:40:04.958Z,4.71
2019-01-06T01:42:31.241Z,4.72
2019-01-06T01:44:57.525Z,4.70
2019-01-06T01:47:23.849Z,4.72
2019-01-06T01:49:50.169Z,4.71
2019-01-06T01:52:16.447Z,4.70
2019-01-06T01:54:42.735Z,4.71
2019-01-06T01:57:09.015Z,4.70
2019-01-06T01:59:35.304Z,4.72
2019-01-06T02:02:01.582Z,4.73
2019-01-06T02:04:27.889Z,4.72
2019-01-06T02:06:54.174Z,4.70
2019-01-06T02:09:20.452Z,4.66
2019-01-06T02:11:46.753Z,4.67
2019-01-06T02:14:13.059Z,4.68
2019-01-06T02:16:39.327Z,4.68
2019-01-06T02:19:05.618Z,4.65
2019-01-06T02:21:31.934Z,4.63
2019-01-06T02:23:58.253Z,4.62
2019-01-06T02:26:24.545Z,4.63
2019-01-06T02:28:50.826Z,4.61
2019-01-06T02:31:17.103Z,4.60
2019-01-06T02:33:43.390Z,4.61
2019-01-06T02:36:09.785Z,4.60
2019-01-06T02:38:35.995Z,4.59
2019-01-06T02:41:02.280Z,4.60
2019-01-06T02:43:28.574Z,4.58
2019-01-06T02:45:54.869Z,4.58
2019-01-06T02:48:21.145Z,4.60
2019-01-06T02:50:47.454Z,4.59
2019-01-06T02:53:13.767Z,4.59
2019-01-06T02:55:40.060Z,4.59
2019-01-06T02:58:06.338Z,4.60
2019-01-06T03:00:32.652Z,4.54
2019-01-06T03:02:58.936Z,4.56
2019-01-06T03:05:25.230Z,4.58
2019-01-06T03:07:51.538Z,4.58
2019-01-06T03:10:17.825Z,4.57
2019-01-06T03:12:44.113Z,4.56
2019-01-06T03:15:10.422Z,4.57
2019-01-06T03:17:36.725Z,4.56
2019-01-06T03:20:03.030Z,4.55
2019-01-06T03:22:29.302Z,4.54
2019-01-06T03:24:55.598Z,4.54
2019-01-06T03:27:21.887Z,4.54
2019-01-06T03:29:48.160Z,4.55
2019-01-06T03:32:14.458Z,4.50
2019-01-06T03:34:40.728Z,4.54
2019-01-06T03:37:07.026Z,4.52
2019-01-06T03:39:33.311Z,4.54
2019-01-06T03:41:59.615Z,4.52
2019-01-06T03:44:25.897Z,4.53
2019-01-06T03:46:52.203Z,4.54
2019-01-06T03:49:18.475Z,4.54
2019-01-06T03:51:44.755Z,4.53
2019-01-06T03:54:11.135Z,4.52
2019-01-06T03:56:37.348Z,4.52
2019-01-06T03:59:03.638Z,4.51
2019-01-06T04:01:29.938Z,4.51
2019-01-06T04:03:56.227Z,4.51
2019-01-06T04:06:22.505Z,4.50
2019-01-06T04:08:48.830Z,4.49
2019-01-06T04:11:15.572Z,4.50
2019-01-06T04:13:41.434Z,4.50
2019-01-06T04:16:07.713Z,4.50
2019-01-06T04:18:34.033Z,4.50
2019-01-06T04:21:00.329Z,4.50
2019-01-06T04:23:26.606Z,4.48
2019-01-06T04:25:52.899Z,4.47
2019-01-06T04:28:19.198Z,4.42
2019-01-06T04:30:45.500Z,4.47
2019-01-06T04:33:11.802Z,4.46
2019-01-06T04:35:38.073Z,4.46
2019-01-06T04:38:04.372Z,4.46
2019-01-06T04:40:30.678Z,4.46
2019-01-06T04:42:56.953Z,4.47
2019-01-06T04:45:23.243Z,4.47
2019-01-06T04:47:49.533Z,4.42
2019-01-06T04:50:15.838Z,4.42
2019-01-06T04:52:42.128Z,4.44
2019-01-06T04:55:08.438Z,4.43
2019-01-06T04:57:34.745Z,4.41
2019-01-06T05:00:01.038Z,4.42
2019-01-06T05:02:27.313Z,4.43
2019-01-06T05:04:53.583Z,4.42
2019-01-06T05:07:19.884Z,4.42
2019-01-06T05:09:46.171Z,4.42
2019-01-06T05:12:12.517Z,4.43
2019-01-06T05:14:38.813Z,4.43
2019-01-06T05:17:05.116Z,4.43
2019-01-06T05:19:31.418Z,4.43
2019-01-06T05:21:57.693Z,4.43
2019-01-06T05:24:23.979Z,4.44
2019-01-06T05:26:50.270Z,4.43
2019-01-06T05:29:16.543Z,4.43
2019-01-06T05:31:42.844Z,4.44
2019-01-06T05:34:09.122Z,4.43
2019-01-06T05:36:35.418Z,4.41
2019-01-06T05:39:01.698Z,4.42
2019-01-06T05:41:28.097Z,4.41
2019-01-06T05:43:54.387Z,4.43
2019-01-06T05:46:20.677Z,4.42
2019-01-06T05:48:46.957Z,4.43
2019-01-06T05:51:13.271Z,4.42
2019-01-06T05:53:39.568Z,4.42
2019-01-06T05:56:05.861Z,4.39
2019-01-06T05:58:32.190Z,4.42
2019-01-06T06:00:58.481Z,4.41
2019-01-06T06:03:24.752Z,4.43
2019-01-06T06:05:51.109Z,4.42
2019-01-06T06:08:17.388Z,4.43
2019-01-06T06:10:43.684Z,4.42
2019-01-06T06:13:10.073Z,4.43
2019-01-06T06:15:36.379Z,4.44
2019-01-06T06:18:05.496Z,4.45
2019-01-06T06:20:28.949Z,4.44
2019-01-06T06:22:55.257Z,4.45
2019-01-06T06:25:21.572Z,4.45
2019-01-06T06:27:47.849Z,4.45
2019-01-06T06:30:14.126Z,4.45
2019-01-06T06:32:40.400Z,4.45
2019-01-06T06:35:06.692Z,4.45
2019-01-06T06:37:32.979Z,4.45
2019-01-06T06:39:59.271Z,4.45
2019-01-06T06:42:25.564Z,4.47
2019-01-06T06:44:51.872Z,4.44
2019-01-06T06:47:18.167Z,4.47
2019-01-06T06:49:44.446Z,4.49
2019-01-06T06:52:10.916Z,4.49
2019-01-06T06:54:37.204Z,4.48
2019-01-06T06:57:03.497Z,4.50
2019-01-06T06:59:29.791Z,4.50
2019-01-06T07:01:56.085Z,4.50
2019-01-06T07:04:22.364Z,4.50
2019-01-06T07:06:48.715Z,4.50
2019-01-06T07:09:14.998Z,4.49
2019-01-06T07:11:41.302Z,4.51
2019-01-06T07:14:07.598Z,4.52
2019-01-06T07:16:34.155Z,4.53
2019-01-06T07:19:00.497Z,4.54
2019-01-06T07:21:26.786Z,4.55
2019-01-06T07:23:53.084Z,4.56
2019-01-06T07:26:19.383Z,4.56
2019-01-06T07:28:45.694Z,4.57
2019-01-06T07:31:11.982Z,4.57
2019-01-06T07:33:38.275Z,4.58
2019-01-06T07:36:04.601Z,4.59
2019-01-06T07:38:30.881Z,4.62
2019-01-06T07:40:57.181Z,4.65
2019-01-06T07:43:23.480Z,4.69
2019-01-06T07:45:49.785Z,4.71
2019-01-06T07:48:16.078Z,4.73
2019-01-06T07:50:42.380Z,4.76
2019-01-06T07:53:08.685Z,4.77
2019-01-06T07:55:34.960Z,4.79
2019-01-06T07:58:01.271Z,4.79
2019-01-06T08:00:27.559Z,4.83
2019-01-06T08:02:53.846Z,4.82
2019-01-06T08:05:20.143Z,4.85
2019-01-06T08:07:46.421Z,4.87
2019-01-06T08:10:12.719Z,4.89
2019-01-06T08:12:38.999Z,4.89
2019-01-06T08:15:05.313Z,4.89
2019-01-06T08:17:31.606Z,4.89
2019-01-06T08:19:57.899Z,4.89
2019-01-06T08:22:24.198Z,4.89
2019-01-06T08:24:50.505Z,4.88
2019-01-06T08:27:16.820Z,4.91
2019-01-06T08:29:43.117Z,4.92
2019-01-06T08:32:09.413Z,4.91
2019-01-06T08:34:35.714Z,4.91
2019-01-06T08:37:02.007Z,4.92
2019-01-06T08:39:28.322Z,4.94
2019-01-06T08:41:54.597Z,4.95
2019-01-06T08:44:20.897Z,5.15
2019-01-06T08:46:47.179Z,5.39
2019-01-06T08:49:13.609Z,5.39
2019-01-06T08:51:39.924Z,5.33
2019-01-06T08:54:06.121Z,5.28
2019-01-06T08:56:32.570Z,5.26
2019-01-06T08:58:58.708Z,5.24
2019-01-06T09:01:25.011Z,5.24
2019-01-06T09:03:51.324Z,5.23
2019-01-06T09:06:17.639Z,5.24
2019-01-06T09:08:44.712Z,5.23
2019-01-06T09:11:10.244Z,5.22
2019-01-06T09:13:36.523Z,5.25
2019-01-06T09:16:02.810Z,5.28
2019-01-06T09:18:29.084Z,5.30
2019-01-06T09:20:55.377Z,5.33
2019-01-06T09:23:21.702Z,5.33
2019-01-06T09:25:47.999Z,5.34
2019-01-06T09:28:14.263Z,5.33
2019-01-06T09:30:40.592Z,5.34
2019-01-06T09:33:06.906Z,5.35
2019-01-06T09:35:33.177Z,5.35
2019-01-06T09:37:59.472Z,5.35
2019-01-06T09:40:27.053Z,5.35
2019-01-06T09:42:52.097Z,5.34
2019-01-06T09:45:18.377Z,5.33
2019-01-06T09:47:44.671Z,5.32
2019-01-06T09:50:10.971Z,5.29
2019-01-06T09:52:37.282Z,5.28
2019-01-06T09:55:03.642Z,5.28
2019-01-06T09:57:29.930Z,5.28
2019-01-06T09:59:56.209Z,5.27
2019-01-06T10:02:22.509Z,5.24
2019-01-06T10:04:48.785Z,5.27
2019-01-06T10:07:15.064Z,5.26
2019-01-06T10:09:41.348Z,5.25
2019-01-06T10:12:07.689Z,5.24
2019-01-06T10:14:33.966Z,5.25
2019-01-06T10:17:00.265Z,5.26
2019-01-06T10:19:26.565Z,5.24
2019-01-06T10:21:52.875Z,5.27
2019-01-06T10:24:19.160Z,5.28
2019-01-06T10:26:46.787Z,5.27
2019-01-06T10:29:13.126Z,5.30
2019-01-06T10:31:39.415Z,5.30
2019-01-06T10:34:05.724Z,5.34
2019-01-06T10:36:32.023Z,5.35
2019-01-06T10:38:58.306Z,5.38
2019-01-06T10:41:24.586Z,5.38
2019-01-06T10:43:50.884Z,5.40
2019-01-06T10:46:17.258Z,5.42
2019-01-06T10:48:43.707Z,5.43
2019-01-06T10:51:14.381Z,5.45
2019-01-06T10:53:40.783Z,5.45
2019-01-06T10:56:07.069Z,5.48
2019-01-06T10:58:33.373Z,5.50
2019-01-06T11:00:59.642Z,5.52
2019-01-06T11:03:25.958Z,5.53
2019-01-06T11:05:52.233Z,5.53
2019-01-06T11:08:18.509Z,5.54
2019-01-06T11:10:44.808Z,5.56
2019-01-06T11:13:13.922Z,5.57
2019-01-06T11:15:40.257Z,5.57
2019-01-06T11:18:06.529Z,5.56
2019-01-06T11:20:32.851Z,5.58
2019-01-06T11:22:59.143Z,5.58
2019-01-06T11:25:25.429Z,5.60
2019-01-06T11:27:51.699Z,5.59
2019-01-06T11:30:17.997Z,5.59
2019-01-06T11:32:44.310Z,5.75
2019-01-06T11:35:10.618Z,5.75
2019-01-06T11:37:36.930Z,5.76
2019-01-06T11:40:03.225Z,5.73
2019-01-06T11:42:29.524Z,5.72
2019-01-06T11:44:55.841Z,5.71
2019-01-06T11:47:22.123Z,5.72
2019-01-06T11:49:48.441Z,5.71
2019-01-06T11:52:14.733Z,5.69
2019-01-06T11:54:41.029Z,5.71
2019-01-06T11:57:07.305Z,5.71
2019-01-06T11:59:33.602Z,5.69
2019-01-06T12:01:59.882Z,5.67
2019-01-06T12:04:26.169Z,5.69
2019-01-06T12:06:52.684Z,5.68
2019-01-06T12:09:18.995Z,5.67
2019-01-06T12:11:45.262Z,5.67
2019-01-06T12:14:11.557Z,5.67
2019-01-06T12:16:37.847Z,5.68
2019-01-06T12:19:04.122Z,5.67
2019-01-06T12:21:30.459Z,5.69
2019-01-06T12:23:56.982Z,5.69
2019-01-06T12:26:23.273Z,5.68
2019-01-06T12:28:49.581Z,5.69
2019-01-06T12:31:15.864Z,5.68
2019-01-06T12:33:42.154Z,5.70
2019-01-06T12:36:08.452Z,5.68
2019-01-06T12:38:34.743Z,5.81
2019-01-06T12:41:01.021Z,5.86
2019-01-06T12:43:27.318Z,5.85
2019-01-06T12:45:53.599Z,5.81
2019-01-06T12:48:19.906Z,5.77
2019-01-06T12:50:46.243Z,5.77
2019-01-06T12:53:12.489Z,5.75
2019-01-06T12:55:38.784Z,5.74
2019-01-06T12:58:05.094Z,5.74
2019-01-06T13:00:31.394Z,5.76
2019-01-06T13:02:57.689Z,5.76
2019-01-06T13:05:23.976Z,5.76
2019-01-06T13:07:50.284Z,5.77
2019-01-06T13:10:19.743Z,5.77
2019-01-06T13:12:46.038Z,5.79
2019-01-06T13:15:12.376Z,5.80
2019-01-06T13:17:38.679Z,5.89
2019-01-06T13:20:05.046Z,5.94
2019-01-06T13:22:31.449Z,5.95
2019-01-06T13:24:57.747Z,6.00
2019-01-06T13:27:24.018Z,6.69
2019-01-06T13:29:50.315Z,6.81
2019-01-06T13:32:16.632Z,6.68
2019-01-06T13:34:42.908Z,6.51
2019-01-06T13:37:09.210Z,6.40
2019-01-06T13:39:35.508Z,6.31
2019-01-06T13:42:01.914Z,6.23
2019-01-06T13:44:28.230Z,6.17
2019-01-06T13:46:56.455Z,6.14
2019-01-06T13:49:20.793Z,6.12
2019-01-06T13:51:47.074Z,6.10
2019-01-06T13:54:13.394Z,6.07
2019-01-06T13:56:39.636Z,6.06
2019-01-06T13:59:05.960Z,6.05
2019-01-06T14:01:32.296Z,6.04
2019-01-06T14:03:58.581Z,6.02
2019-01-06T14:06:24.874Z,6.02
2019-01-06T14:08:51.169Z,6.01
2019-01-06T14:11:17.462Z,6.00
2019-01-06T14:13:43.785Z,6.01
2019-01-06T14:16:10.056Z,6.26
2019-01-06T14:18:36.402Z,6.35
2019-01-06T14:21:02.696Z,6.30
2019-01-06T14:23:28.974Z,6.26
2019-01-06T14:25:55.261Z,6.20
2019-01-06T14:28:21.543Z,6.16
2019-01-06T14:30:47.876Z,6.14
2019-01-06T14:33:14.175Z,6.12
2019-01-06T14:35:40.456Z,6.11
2019-01-06T14:38:06.753Z,6.08
2019-01-06T14:40:33.057Z,6.06
2019-01-06T14:42:59.348Z,6.06
2019-01-06T14:45:25.666Z,6.05
2019-01-06T14:47:51.933Z,6.04
2019-01-06T14:50:18.243Z,6.03
2019-01-06T14:52:44.517Z,6.01
2019-01-06T14:55:10.843Z,6.00
2019-01-06T14:57:37.143Z,5.99
2019-01-06T15:00:07.417Z,5.98
2019-01-06T15:02:33.705Z,5.97
2019-01-06T15:04:59.998Z,5.96
2019-01-06T15:07:26.287Z,5.96
2019-01-06T15:09:52.563Z,5.94
2019-01-06T15:12:19.732Z,5.93
2019-01-06T15:14:46.017Z,5.92
2019-01-06T15:17:12.334Z,5.90
2019-01-06T15:19:38.632Z,5.90
2019-01-06T15:22:04.924Z,5.90
2019-01-06T15:24:31.208Z,5.88
2019-01-06T15:26:57.509Z,5.87
2019-01-06T15:29:23.799Z,5.87
2019-01-06T15:31:50.076Z,5.84
2019-01-06T15:34:16.382Z,5.83
2019-01-06T15:36:42.681Z,5.82
2019-01-06T15:39:08.999Z,5.80
2019-01-06T15:41:35.310Z,5.76
2019-01-06T15:44:01.597Z,5.75
2019-01-06T15:46:27.903Z,5.71
2019-01-06T15:48:54.176Z,5.72
2019-01-06T15:51:20.487Z,5.70
2019-01-06T15:53:46.783Z,5.69
2019-01-06T15:56:13.323Z,5.67
2019-01-06T15:58:39.640Z,5.66
2019-01-06T16:01:05.935Z,5.64
2019-01-06T16:03:32.233Z,5.64
2019-01-06T16:05:58.540Z,5.66
2019-01-06T16:08:24.851Z,5.71
2019-01-06T16:10:51.131Z,5.70
2019-01-06T16:13:17.434Z,5.70
2019-01-06T16:15:43.757Z,5.67
2019-01-06T16:18:10.091Z,5.63
2019-01-06T16:20:36.370Z,5.61
2019-01-06T16:23:02.681Z,5.58
2019-01-06T16:25:28.962Z,5.56
2019-01-06T16:27:56.175Z,5.55
2019-01-06T16:30:21.634Z,5.53
2019-01-06T16:32:47.843Z,5.53
2019-01-06T16:35:14.131Z,5.50
2019-01-06T16:37:40.429Z,5.48
2019-01-06T16:40:06.683Z,5.46
2019-01-06T16:42:32.974Z,5.44
2019-01-06T16:44:59.252Z,5.38
2019-01-06T16:47:25.554Z,5.39
2019-01-06T16:49:51.847Z,5.38
2019-01-06T16:52:18.130Z,5.36
2019-01-06T16:54:44.403Z,5.33
2019-01-06T16:57:10.757Z,5.32
2019-01-06T16:59:37.024Z,5.31
2019-01-06T17:02:03.318Z,5.29
2019-01-06T17:04:29.627Z,5.26
2019-01-06T17:06:55.892Z,5.24
2019-01-06T17:09:22.205Z,5.24
2019-01-06T17:11:48.498Z,5.22
2019-01-06T17:14:14.793Z,5.19
2019-01-06T17:16:43.351Z,5.18
2019-01-06T17:19:09.668Z,5.16
2019-01-06T17:21:38.511Z,5.15
2019-01-06T17:24:04.830Z,5.14
2019-01-06T17:26:31.203Z,5.13
2019-01-06T17:28:57.501Z,5.13
2019-01-06T17:31:23.787Z,5.11
2019-01-06T17:33:50.229Z,5.11
2019-01-06T17:36:16.530Z,5.10
2019-01-06T17:38:42.845Z,5.11
2019-01-06T17:41:09.126Z,5.12
2019-01-06T17:43:35.409Z,5.69
2019-01-06T17:46:01.698Z,5.97
2019-01-06T17:48:28.059Z,5.75
2019-01-06T17:50:54.359Z,5.70
2019-01-06T17:53:20.659Z,5.57
2019-01-06T17:55:46.949Z,5.50
2019-01-06T17:58:13.315Z,5.46
2019-01-06T18:00:39.558Z,5.43
2019-01-06T18:03:05.857Z,5.40
2019-01-06T18:05:32.167Z,5.38
2019-01-06T18:07:58.449Z,5.35
2019-01-06T18:10:24.752Z,5.30
2019-01-06T18:12:51.067Z,5.32
2019-01-06T18:15:17.389Z,5.32
2019-01-06T18:17:43.685Z,5.33
2019-01-06T18:20:09.993Z,5.31
2019-01-06T18:22:36.656Z,5.26
2019-01-06T18:25:02.624Z,5.26
2019-01-06T18:27:28.950Z,5.24
2019-01-06T18:29:55.223Z,5.24
2019-01-06T18:32:21.502Z,5.21
2019-01-06T18:34:47.799Z,5.20
2019-01-06T18:37:14.140Z,5.21
2019-01-06T18:39:40.422Z,5.21
2019-01-06T18:42:06.735Z,5.18
2019-01-06T18:44:33.040Z,5.15
2019-01-06T18:46:59.331Z,5.17
2019-01-06T18:49:26.736Z,5.16
2019-01-06T18:51:53.044Z,5.75
2019-01-06T18:54:19.339Z,5.81
2019-01-06T18:56:45.674Z,5.67
2019-01-06T18:59:12.239Z,5.57
2019-01-06T19:01:38.546Z,5.48
2019-01-06T19:04:04.939Z,5.40
2019-01-06T19:06:31.118Z,5.36
2019-01-06T19:08:57.412Z,5.32
2019-01-06T19:11:23.743Z,5.30
2019-01-06T19:13:50.039Z,5.27
2019-01-06T19:16:16.349Z,5.26
2019-01-06T19:18:42.633Z,5.25
2019-01-06T19:21:08.947Z,5.23
2019-01-06T19:23:35.250Z,5.21
2019-01-06T19:26:01.523Z,5.21
2019-01-06T19:28:27.844Z,5.20
2019-01-06T19:30:54.162Z,5.19
2019-01-06T19:33:20.458Z,5.18
2019-01-06T19:35:46.793Z,5.17
2019-01-06T19:38:13.061Z,5.17
2019-01-06T19:40:39.343Z,5.15
2019-01-06T19:43:05.629Z,5.13
2019-01-06T19:45:31.969Z,5.13
2019-01-06T19:47:58.263Z,5.14
2019-01-06T19:50:24.544Z,5.13
2019-01-06T19:52:50.830Z,5.13
2019-01-06T19:55:17.136Z,5.13
2019-01-06T19:57:47.218Z,5.12
2019-01-06T20:00:09.734Z,5.09
2019-01-06T20:02:36.353Z,5.07
2019-01-06T20:05:02.669Z,5.09
2019-01-06T20:07:28.978Z,5.08
2019-01-06T20:09:55.453Z,5.07
2019-01-06T20:12:21.696Z,5.06
2019-01-06T20:14:48.037Z,5.06
2019-01-06T20:17:14.331Z,5.03
2019-01-06T20:19:40.628Z,5.05
2019-01-06T20:22:06.922Z,5.05
2019-01-06T20:24:33.213Z,5.04
2019-01-06T20:26:59.517Z,5.05
2019-01-06T20:29:25.818Z,5.05
2019-01-06T20:31:52.075Z,5.05
2019-01-06T20:34:18.437Z,5.03
2019-01-06T20:36:44.830Z,5.02
2019-01-06T20:39:11.143Z,5.01
2019-01-06T20:41:37.451Z,5.01
2019-01-06T20:44:03.761Z,5.00
2019-01-06T20:46:30.043Z,4.99
2019-01-06T20:48:56.390Z,4.99
2019-01-06T20:51:22.670Z,4.99
2019-01-06T20:53:48.972Z,4.98
2019-01-06T20:56:15.283Z,4.98
2019-01-06T20:58:41.570Z,4.98
2019-01-06T21:01:07.918Z,4.97
2019-01-06T21:03:34.209Z,4.97
2019-01-06T21:06:00.528Z,4.96
2019-01-06T21:08:26.821Z,4.93
2019-01-06T21:10:53.102Z,4.93
2019-01-06T21:13:19.379Z,4.91
2019-01-06T21:15:45.663Z,4.90
2019-01-06T21:18:13.113Z,4.89
2019-01-06T21:20:39.416Z,4.89
2019-01-06T21:23:05.711Z,4.88
2019-01-06T21:25:32.161Z,4.86
2019-01-06T21:27:58.452Z,4.84
2019-01-06T21:30:24.798Z,4.83
2019-01-06T21:32:51.129Z,4.83
2019-01-06T21:35:17.407Z,4.83
2019-01-06T21:37:43.713Z,4.76
2019-01-06T21:40:10.011Z,4.80
2019-01-06T21:42:36.386Z,4.80
2019-01-06T21:45:02.674Z,4.79
2019-01-06T21:47:28.987Z,4.79
2019-01-06T21:49:55.263Z,4.79
2019-01-06T21:52:21.563Z,4.73
2019-01-06T21:54:47.868Z,4.75
2019-01-06T21:57:14.163Z,4.76
2019-01-06T21:59:40.459Z,4.70
2019-01-06T22:02:06.760Z,4.74
2019-01-06T22:04:33.057Z,4.73
2019-01-06T22:06:59.369Z,4.71
2019-01-06T22:09:25.648Z,4.73
2019-01-06T22:11:51.964Z,4.72
2019-01-06T22:14:18.252Z,4.68
2019-01-06T22:16:44.566Z,4.70
2019-01-06T22:19:10.846Z,4.68
2019-01-06T22:21:37.155Z,4.63
2019-01-06T22:24:03.452Z,4.64
2019-01-06T22:26:29.765Z,4.64
2019-01-06T22:28:56.063Z,4.62
2019-01-06T22:31:25.447Z,4.63
2019-01-06T22:33:48.646Z,4.63
2019-01-06T22:36:14.951Z,4.61
2019-01-06T22:38:41.237Z,4.61
2019-01-06T22:41:07.544Z,4.59
2019-01-06T22:43:33.844Z,4.59
2019-01-06T22:46:00.119Z,4.57
2019-01-06T22:48:26.404Z,4.58
2019-01-06T22:50:52.692Z,4.58
2019-01-06T22:53:18.979Z,4.57
2019-01-06T22:55:45.263Z,4.54
2019-01-06T22:58:11.539Z,4.57
2019-01-06T23:00:37.835Z,4.57
2019-01-06T23:03:04.121Z,4.58
2019-01-06T23:05:30.456Z,4.57
2019-01-06T23:07:56.872Z,4.56
2019-01-06T23:10:23.150Z,4.54
2019-01-06T23:12:49.469Z,4.54
2019-01-06T23:15:15.748Z,4.58
2019-01-06T23:17:42.031Z,4.56
2019-01-06T23:20:08.342Z,4.57
2019-01-06T23:22:34.652Z,4.57
2019-01-06T23:25:00.928Z,4.57
2019-01-06T23:27:27.213Z,4.56
2019-01-06T23:29:53.506Z,4.56
2019-01-06T23:32:19.782Z,4.56
2019-01-06T23:34:46.104Z,4.56
2019-01-06T23:37:12.379Z,4.53
2019-01-06T23:39:38.690Z,4.55
2019-01-06T23:42:04.978Z,4.55
2019-01-06T23:44:31.264Z,4.56
2019-01-06T23:46:57.607Z,4.56
2019-01-06T23:49:23.908Z,4.55
2019-01-06T23:51:50.196Z,4.53
2019-01-06T23:54:16.486Z,4.54
2019-01-06T23:56:42.772Z,4.55
2019-01-06T23:59:09.077Z,4.53
